createdAt,value
2017-10-16T00:00:49.000Z,14.52
2017-10-16T00:03:16.541Z,13.65
2017-10-16T00:05:44.851Z,15.25
2017-10-16T00:08:13.128Z,14.50
2017-10-16T00:10:41.404Z,15.35
2017-10-16T00:13:09.696Z,17.02
2017-10-16T00:15:37.223Z,17.35
2017-10-16T00:18:04.751Z,17.90
2017-10-16T00:20:32.605Z,15.60
2017-10-16T00:23:00.144Z,14.95
2017-10-16T00:25:27.665Z,16.62
2017-10-16T00:27:55.180Z,15.02
2017-10-16T00:30:22.696Z,17.27
2017-10-16T00:32:51.095Z,18.23
2017-10-16T00:35:18.693Z,16.30
2017-10-16T00:37:46.212Z,16.48
2017-10-16T00:40:13.745Z,16.77
2017-10-16T00:42:41.259Z,15.85
2017-10-16T00:45:08.791Z,18.87
2017-10-16T00:47:36.312Z,17.33
2017-10-16T00:50:03.888Z,17.48
2017-10-16T00:52:31.408Z,15.13
2017-10-16T00:54:58.906Z,14.80
2017-10-16T00:57:27.181Z,13.27
2017-10-16T00:59:54.695Z,13.60
2017-10-16T01:02:22.203Z,13.25
2017-10-16T01:04:49.717Z,14.95
2017-10-16T01:07:17.232Z,14.43
2017-10-16T01:09:45.491Z,13.70
2017-10-16T01:12:13.016Z,14.80
2017-10-16T01:14:40.562Z,15.32
2017-10-16T01:17:08.108Z,15.02
2017-10-16T01:19:35.657Z,15.25
2017-10-16T01:22:03.181Z,12.63
2017-10-16T01:24:30.728Z,13.57
2017-10-16T01:26:58.260Z,13.73
2017-10-16T01:29:25.820Z,13.23
2017-10-16T01:31:54.165Z,13.38
2017-10-16T01:34:21.696Z,13.75
2017-10-16T01:36:49.228Z,13.13
2017-10-16T01:39:16.733Z,14.18
2017-10-16T01:41:44.252Z,13.32
2017-10-16T01:44:11.789Z,11.80
2017-10-16T01:46:39.305Z,12.40
2017-10-16T01:49:06.854Z,11.75
2017-10-16T01:51:34.372Z,13.77
2017-10-16T01:54:01.879Z,13.18
2017-10-16T01:56:29.403Z,10.77
2017-10-16T01:58:56.922Z,12.63
2017-10-16T02:01:25.213Z,13.18
2017-10-16T02:03:52.771Z,12.50
2017-10-16T02:06:20.292Z,12.63
2017-10-16T02:08:47.820Z,11.70
2017-10-16T02:11:15.344Z,10.68
2017-10-16T02:13:42.876Z,12.18
2017-10-16T02:16:10.414Z,11.75
2017-10-16T02:18:37.966Z,13.27
2017-10-16T02:21:06.269Z,9.38
2017-10-16T02:23:33.793Z,12.07
2017-10-16T02:26:01.310Z,11.88
2017-10-16T02:28:28.848Z,12.57
2017-10-16T02:30:56.402Z,11.57
2017-10-16T02:33:23.917Z,9.73
2017-10-16T02:35:51.508Z,11.02
2017-10-16T02:38:19.085Z,10.80
2017-10-16T02:40:46.619Z,11.43
2017-10-16T02:43:14.186Z,10.88
2017-10-16T02:45:41.704Z,10.85
2017-10-16T02:48:09.257Z,11.20
2017-10-16T02:50:36.778Z,10.85
2017-10-16T02:53:04.299Z,11.20
2017-10-16T02:55:31.851Z,11.57
2017-10-16T02:57:59.375Z,10.75
2017-10-16T03:00:26.883Z,11.32
2017-10-16T03:02:54.426Z,11.35
2017-10-16T03:05:21.947Z,11.10
2017-10-16T03:07:49.517Z,10.98
2017-10-16T03:10:17.063Z,11.40
2017-10-16T03:12:44.593Z,11.25
2017-10-16T03:15:12.115Z,11.32
2017-10-16T03:17:40.461Z,11.93
2017-10-16T03:20:07.988Z,11.90
2017-10-16T03:22:35.497Z,10.63
2017-10-16T03:25:03.051Z,11.27
2017-10-16T03:27:30.595Z,10.82
2017-10-16T03:29:58.091Z,9.30
2017-10-16T03:32:26.371Z,11.17
2017-10-16T03:34:53.902Z,10.55
2017-10-16T03:37:21.430Z,10.13
2017-10-16T03:39:48.949Z,10.40
2017-10-16T03:42:16.468Z,10.35
2017-10-16T03:44:44.001Z,10.98
2017-10-16T03:47:11.512Z,10.07
2017-10-16T03:49:40.095Z,9.38
2017-10-16T03:52:08.380Z,8.95
2017-10-16T03:54:36.650Z,11.10
2017-10-16T03:57:04.944Z,10.50
2017-10-16T03:59:32.452Z,9.68
2017-10-16T04:01:59.961Z,12.37
2017-10-16T04:04:27.484Z,11.52
2017-10-16T04:06:55.008Z,10.52
2017-10-16T04:09:22.523Z,11.80
2017-10-16T04:11:50.041Z,12.00
2017-10-16T04:14:17.597Z,12.68
2017-10-16T04:16:45.151Z,12.60
2017-10-16T04:19:12.689Z,13.45
2017-10-16T04:21:40.201Z,12.90
2017-10-16T04:24:07.730Z,12.57
2017-10-16T04:26:35.251Z,13.13
2017-10-16T04:29:03.556Z,11.15
2017-10-16T04:31:31.113Z,12.10
2017-10-16T04:33:58.642Z,12.88
2017-10-16T04:36:26.927Z,12.95
2017-10-16T04:38:55.238Z,12.77
2017-10-16T04:41:22.760Z,12.13
2017-10-16T04:43:50.294Z,12.98
2017-10-16T04:46:17.848Z,13.50
2017-10-16T04:48:45.356Z,13.95
2017-10-16T04:51:13.532Z,13.62
2017-10-16T04:53:41.050Z,12.93
2017-10-16T04:56:08.596Z,12.95
2017-10-16T04:58:36.116Z,11.50
2017-10-16T05:01:03.640Z,12.48
2017-10-16T05:03:31.148Z,15.55
2017-10-16T05:05:58.657Z,13.38
2017-10-16T05:08:26.958Z,13.00
2017-10-16T05:10:54.460Z,13.10
2017-10-16T05:13:21.989Z,13.15
2017-10-16T05:15:49.515Z,13.60
2017-10-16T05:18:17.794Z,10.68
2017-10-16T05:20:46.095Z,12.75
2017-10-16T05:23:13.629Z,12.15
2017-10-16T05:25:41.247Z,12.05
2017-10-16T05:28:08.784Z,12.70
2017-10-16T05:30:36.388Z,12.75
2017-10-16T05:33:03.927Z,11.65
2017-10-16T05:35:31.448Z,12.80
2017-10-16T05:37:58.964Z,12.88
2017-10-16T05:40:26.512Z,11.98
2017-10-16T05:42:54.043Z,11.70
2017-10-16T05:45:21.568Z,11.95
2017-10-16T05:47:49.086Z,12.43
2017-10-16T05:50:16.595Z,11.95
2017-10-16T05:52:44.879Z,11.80
2017-10-16T05:55:12.405Z,13.75
2017-10-16T05:57:39.942Z,12.52
2017-10-16T06:00:07.521Z,12.82
2017-10-16T06:02:35.073Z,13.73
2017-10-16T06:05:03.276Z,11.73
2017-10-16T06:07:30.797Z,13.60
2017-10-16T06:09:58.331Z,13.70
2017-10-16T06:12:25.848Z,13.02
2017-10-16T06:14:54.171Z,13.62
2017-10-16T06:17:21.686Z,13.00
2017-10-16T06:19:49.195Z,13.48
2017-10-16T06:22:16.736Z,13.93
2017-10-16T06:24:44.261Z,12.27
2017-10-16T06:27:11.791Z,12.65
2017-10-16T06:29:39.337Z,14.35
2017-10-16T06:32:06.857Z,13.95
2017-10-16T06:34:34.418Z,14.18
2017-10-16T06:37:01.944Z,14.13
2017-10-16T06:39:29.460Z,13.88
2017-10-16T06:41:57.112Z,13.82
2017-10-16T06:44:24.631Z,13.35
2017-10-16T06:46:53.192Z,14.05
2017-10-16T06:49:20.838Z,13.80
2017-10-16T06:51:48.366Z,12.27
2017-10-16T06:54:16.007Z,14.20
2017-10-16T06:56:43.508Z,13.40
2017-10-16T06:59:11.021Z,13.13
2017-10-16T07:01:38.553Z,12.00
2017-10-16T07:04:06.164Z,13.75
2017-10-16T07:06:33.725Z,12.43
2017-10-16T07:09:02.016Z,12.82
2017-10-16T07:11:29.514Z,14.75
2017-10-16T07:13:57.039Z,14.63
2017-10-16T07:16:24.576Z,13.32
2017-10-16T07:18:52.122Z,14.93
2017-10-16T07:21:19.650Z,14.73
2017-10-16T07:23:47.178Z,16.42
2017-10-16T07:29:18.081Z,15.63
2017-10-16T07:31:45.702Z,13.65
2017-10-16T07:34:14.037Z,13.52
2017-10-16T07:36:41.683Z,14.73
2017-10-16T07:39:09.196Z,12.52
2017-10-16T07:41:37.512Z,15.38
2017-10-16T07:44:05.197Z,14.63
2017-10-16T07:46:32.717Z,13.90
2017-10-16T07:49:00.237Z,13.15
2017-10-16T07:51:27.774Z,14.93
2017-10-16T07:53:55.306Z,14.73
2017-10-16T07:56:22.808Z,14.43
2017-10-16T07:58:50.445Z,14.60
2017-10-16T08:01:17.935Z,16.27
2017-10-16T08:03:45.526Z,13.85
2017-10-16T08:06:13.071Z,14.87
2017-10-16T08:08:40.575Z,13.93
2017-10-16T08:11:08.111Z,13.98
2017-10-16T08:13:35.628Z,14.00
2017-10-16T08:16:03.159Z,15.27
2017-10-16T08:18:30.673Z,27.58
2017-10-16T08:20:58.964Z,13.05
2017-10-16T08:23:27.241Z,13.77
2017-10-16T08:25:54.744Z,12.85
2017-10-16T08:28:23.027Z,13.30
2017-10-16T08:30:50.537Z,14.50
2017-10-16T08:33:18.805Z,12.50
2017-10-16T08:35:47.082Z,14.10
2017-10-16T08:38:15.356Z,13.48
2017-10-16T08:40:43.640Z,12.05
2017-10-16T08:43:11.929Z,12.35
2017-10-16T08:45:39.535Z,12.27
2017-10-16T08:48:07.050Z,12.93
2017-10-16T08:50:34.604Z,12.77
2017-10-16T08:53:02.108Z,12.25
2017-10-16T08:55:29.663Z,11.18
2017-10-16T08:57:57.192Z,12.45
2017-10-16T09:00:25.649Z,13.98
2017-10-16T09:02:53.937Z,12.43
2017-10-16T09:05:22.251Z,12.60
2017-10-16T09:07:49.796Z,12.00
2017-10-16T09:10:17.403Z,12.13
2017-10-16T09:12:44.923Z,11.07
2017-10-16T09:15:12.441Z,10.80
2017-10-16T09:17:39.986Z,10.63
2017-10-16T09:20:07.625Z,10.77
2017-10-16T09:22:35.241Z,9.43
2017-10-16T09:25:02.747Z,10.98
2017-10-16T09:27:30.292Z,9.40
2017-10-16T09:29:57.808Z,10.18
2017-10-16T09:32:25.348Z,10.25
2017-10-16T09:34:52.865Z,10.98
2017-10-16T09:37:20.423Z,10.80
2017-10-16T09:39:47.932Z,9.70
2017-10-16T09:42:15.434Z,12.20
2017-10-16T09:44:42.944Z,10.70
2017-10-16T09:47:10.658Z,11.50
2017-10-16T09:49:38.320Z,9.25
2017-10-16T09:52:05.944Z,9.02
2017-10-16T09:54:34.225Z,9.82
2017-10-16T09:57:02.499Z,9.73
2017-10-16T09:59:30.024Z,10.45
2017-10-16T10:01:57.523Z,9.30
2017-10-16T10:04:25.802Z,11.27
2017-10-16T10:06:54.071Z,9.93
2017-10-16T10:09:22.345Z,8.95
2017-10-16T10:11:50.767Z,9.00
2017-10-16T10:14:18.286Z,9.45
2017-10-16T10:16:46.582Z,8.60
2017-10-16T10:19:14.864Z,9.20
2017-10-16T10:21:43.135Z,8.63
2017-10-16T10:24:11.434Z,9.23
2017-10-16T10:26:39.015Z,8.52
2017-10-16T10:29:06.563Z,8.00
2017-10-16T10:31:34.098Z,8.35
2017-10-16T10:34:01.744Z,8.55
2017-10-16T10:36:29.273Z,9.23
2017-10-16T10:38:56.789Z,8.45
2017-10-16T10:41:24.296Z,9.30
2017-10-16T10:43:51.828Z,9.05
2017-10-16T10:46:19.348Z,8.40
2017-10-16T10:48:47.616Z,8.93
2017-10-16T10:51:16.026Z,8.98
2017-10-16T10:53:43.560Z,9.40
2017-10-16T10:56:11.846Z,7.93
2017-10-16T10:58:40.147Z,7.32
2017-10-16T11:01:07.652Z,7.72
2017-10-16T11:03:35.165Z,9.43
2017-10-16T11:06:02.666Z,8.10
2017-10-16T11:08:30.180Z,8.40
2017-10-16T11:10:57.728Z,9.02
2017-10-16T11:13:25.222Z,9.02
2017-10-16T11:15:52.733Z,10.15
2017-10-16T11:18:20.997Z,8.93
2017-10-16T11:20:49.291Z,9.93
2017-10-16T11:23:17.591Z,8.38
2017-10-16T11:25:45.114Z,9.48
2017-10-16T11:28:12.638Z,8.27
2017-10-16T11:30:40.153Z,10.00
2017-10-16T11:33:07.688Z,10.23
2017-10-16T11:35:35.184Z,9.60
2017-10-16T11:38:02.696Z,9.20
2017-10-16T11:40:30.232Z,9.13
2017-10-16T11:42:57.784Z,7.95
2017-10-16T11:45:25.288Z,9.00
2017-10-16T11:47:53.560Z,9.77
2017-10-16T11:50:21.876Z,9.77
2017-10-16T11:52:49.396Z,9.30
2017-10-16T11:55:16.925Z,8.98
2017-10-16T11:57:44.424Z,7.72
2017-10-16T12:00:12.693Z,9.10
2017-10-16T12:02:41.060Z,8.70
2017-10-16T12:05:08.586Z,8.80
2017-10-16T12:07:36.094Z,8.90
2017-10-16T12:10:04.376Z,8.70
2017-10-16T12:12:32.666Z,7.60
2017-10-16T12:15:00.164Z,8.70
2017-10-16T12:17:28.460Z,8.80
2017-10-16T12:19:55.985Z,7.97
2017-10-16T12:22:23.515Z,9.50
2017-10-16T12:24:51.825Z,8.97
2017-10-16T12:27:19.373Z,8.63
2017-10-16T12:29:46.903Z,8.07
2017-10-16T12:32:15.178Z,8.27
2017-10-16T12:34:43.471Z,8.35
2017-10-16T12:37:10.993Z,7.60
2017-10-16T12:39:38.516Z,8.45
2017-10-16T12:42:06.027Z,7.47
2017-10-16T12:44:34.328Z,8.75
2017-10-16T12:47:01.934Z,10.20
2017-10-16T12:49:29.567Z,10.98
2017-10-16T12:51:57.177Z,8.52
2017-10-16T12:54:24.712Z,10.02
2017-10-16T12:56:53.019Z,9.48
2017-10-16T12:59:20.566Z,8.98
2017-10-16T13:01:48.132Z,10.43
2017-10-16T13:04:16.344Z,8.68
2017-10-16T13:06:43.871Z,8.40
2017-10-16T13:09:11.389Z,8.98
2017-10-16T13:11:38.943Z,10.35
2017-10-16T13:14:06.467Z,10.52
2017-10-16T13:16:34.817Z,8.85
2017-10-16T13:19:02.359Z,9.63
2017-10-16T13:21:29.874Z,8.63
2017-10-16T13:23:59.173Z,10.30
2017-10-16T13:26:27.474Z,11.15
2017-10-16T13:28:55.100Z,8.15
2017-10-16T13:31:23.377Z,8.57
2017-10-16T13:33:51.662Z,10.30
2017-10-16T13:36:19.937Z,8.50
2017-10-16T13:38:48.226Z,9.73
2017-10-16T13:41:15.745Z,8.98
2017-10-16T13:43:43.322Z,8.77
2017-10-16T13:46:10.929Z,7.85
2017-10-16T13:48:38.438Z,9.35
2017-10-16T13:51:05.977Z,10.18
2017-10-16T13:53:33.499Z,8.23
2017-10-16T13:56:00.989Z,8.68
2017-10-16T13:58:28.541Z,9.55
2017-10-16T14:00:56.041Z,8.88
2017-10-16T14:03:23.558Z,8.90
2017-10-16T14:05:51.099Z,9.45
2017-10-16T14:08:18.638Z,8.55
2017-10-16T14:10:46.292Z,9.60
2017-10-16T14:13:13.809Z,8.85
2017-10-16T14:15:42.098Z,7.72
2017-10-16T14:18:09.642Z,9.88
2017-10-16T14:20:37.173Z,11.70
2017-10-16T14:23:07.728Z,9.88
2017-10-16T14:25:35.914Z,9.32
2017-10-16T14:28:03.531Z,8.63
2017-10-16T14:30:31.069Z,9.55
2017-10-16T14:32:59.427Z,10.38
2017-10-16T14:35:27.055Z,9.82
2017-10-16T14:37:54.579Z,10.48
2017-10-16T14:40:22.863Z,10.02
2017-10-16T14:42:51.128Z,10.93
2017-10-16T14:45:19.448Z,11.35
2017-10-16T14:47:47.041Z,11.52
2017-10-16T14:50:15.363Z,10.45
2017-10-16T14:52:42.921Z,11.02
2017-10-16T14:55:10.464Z,11.38
2017-10-16T14:57:38.764Z,11.73
2017-10-16T15:00:06.305Z,10.93
2017-10-16T15:02:34.748Z,11.88
2017-10-16T15:05:02.260Z,14.55
2017-10-16T15:07:29.829Z,11.48
2017-10-16T15:09:57.340Z,11.23
2017-10-16T15:12:24.851Z,12.85
2017-10-16T15:14:52.370Z,12.60
2017-10-16T15:17:19.886Z,13.32
2017-10-16T15:19:47.403Z,13.13
2017-10-16T15:22:15.835Z,13.02
2017-10-16T15:24:43.364Z,14.50
2017-10-16T15:27:10.913Z,12.18
2017-10-16T15:29:38.447Z,12.95
2017-10-16T15:32:05.993Z,12.50
2017-10-16T15:34:33.520Z,12.50
2017-10-16T15:37:01.198Z,14.30
2017-10-16T15:39:28.717Z,13.48
2017-10-16T15:41:56.228Z,13.30
2017-10-16T15:44:23.741Z,13.32
2017-10-16T15:46:51.273Z,12.27
2017-10-16T15:49:19.567Z,14.30
2017-10-16T15:51:47.109Z,13.65
2017-10-16T15:54:15.408Z,15.23
2017-10-16T15:56:42.927Z,15.40
2017-10-16T15:59:10.461Z,15.40
2017-10-16T16:01:37.980Z,21.58
2017-10-16T16:04:06.257Z,14.15
2017-10-16T16:06:34.579Z,13.27
2017-10-16T16:09:02.182Z,12.98
2017-10-16T16:11:30.500Z,13.30
2017-10-16T16:13:58.016Z,14.45
2017-10-16T16:16:25.540Z,14.43
2017-10-16T16:18:53.274Z,12.65
2017-10-16T16:21:20.798Z,15.60
2017-10-16T16:23:48.339Z,13.82
2017-10-16T16:26:15.862Z,13.82
2017-10-16T16:28:43.376Z,15.07
2017-10-16T16:31:10.900Z,14.10
2017-10-16T16:33:38.436Z,14.87
2017-10-16T16:36:06.075Z,16.33
2017-10-16T16:38:34.378Z,16.10
2017-10-16T16:41:01.961Z,17.15
2017-10-16T16:43:29.496Z,15.85
2017-10-16T16:45:57.055Z,15.63
2017-10-16T16:48:24.567Z,17.35
2017-10-16T16:50:52.094Z,15.70
2017-10-16T16:53:19.624Z,16.48
2017-10-16T16:55:47.141Z,16.05
2017-10-16T16:58:14.652Z,15.60
2017-10-16T17:00:42.203Z,16.73
2017-10-16T17:03:09.751Z,17.25
2017-10-16T17:05:38.030Z,17.23
2017-10-16T17:08:06.328Z,18.98
2017-10-16T17:10:33.869Z,18.17
2017-10-16T17:13:01.432Z,18.15
2017-10-16T17:15:29.010Z,17.62
2017-10-16T17:17:56.517Z,17.73
2017-10-16T17:20:24.061Z,18.17
2017-10-16T17:22:51.598Z,18.40
2017-10-16T17:25:19.110Z,19.65
2017-10-16T17:27:47.403Z,17.17
2017-10-16T17:30:15.711Z,17.85
2017-10-16T17:32:43.224Z,16.37
2017-10-16T17:35:10.780Z,18.25
2017-10-16T17:37:39.203Z,23.30
2017-10-16T17:40:06.719Z,18.67
2017-10-16T17:42:34.255Z,19.67
2017-10-16T17:45:01.784Z,54.95
2017-10-16T17:47:29.300Z,66.90
2017-10-16T17:49:57.720Z,17.12
2017-10-16T17:52:25.222Z,17.75
2017-10-16T17:54:53.632Z,18.08
2017-10-16T17:57:21.143Z,17.35
2017-10-16T17:59:48.645Z,17.23
2017-10-16T18:02:16.945Z,19.15
2017-10-16T18:04:44.504Z,44.63
2017-10-16T18:07:12.052Z,24.87
2017-10-16T18:09:42.237Z,31.67
2017-10-16T18:12:09.784Z,18.40
2017-10-16T18:14:37.422Z,19.42
2017-10-16T18:17:06.350Z,20.55
2017-10-16T18:19:33.958Z,19.90
2017-10-16T18:22:01.493Z,18.23
2017-10-16T18:24:29.920Z,20.90
2017-10-16T18:26:57.461Z,20.55
2017-10-16T18:29:24.963Z,21.08
2017-10-16T18:31:52.602Z,25.80
2017-10-16T18:34:20.117Z,21.37
2017-10-16T18:36:48.037Z,19.90
2017-10-16T18:39:15.587Z,21.00
2017-10-16T18:41:43.219Z,107.97
2017-10-16T18:44:10.771Z,34.05
2017-10-16T18:46:39.094Z,20.60
2017-10-16T18:49:06.688Z,19.67
2017-10-16T18:51:34.217Z,18.60
2017-10-16T18:54:01.850Z,76.22
2017-10-16T18:56:29.442Z,34.28
2017-10-16T18:58:56.955Z,23.02
2017-10-16T19:01:24.602Z,20.65
2017-10-16T19:03:52.221Z,19.15
2017-10-16T19:06:19.813Z,18.60
2017-10-16T19:08:47.352Z,21.67
2017-10-16T19:11:14.983Z,21.75
2017-10-16T19:13:42.511Z,53.63
2017-10-16T19:16:10.046Z,46.03
2017-10-16T19:18:37.611Z,57.17
2017-10-16T19:21:05.172Z,100.25
2017-10-16T19:23:32.736Z,26.30
2017-10-16T19:26:00.351Z,23.15
2017-10-16T19:28:27.878Z,22.45
2017-10-16T19:30:55.403Z,32.75
2017-10-16T19:33:22.963Z,52.95
2017-10-16T19:35:50.572Z,91.47
2017-10-16T19:38:18.092Z,63.08
2017-10-16T19:40:45.630Z,36.50
2017-10-16T19:43:13.174Z,21.50
2017-10-16T19:45:40.738Z,26.92
2017-10-16T19:48:08.263Z,24.48
2017-10-16T19:50:36.830Z,23.20
2017-10-16T19:53:04.365Z,22.00
2017-10-16T19:55:31.879Z,24.95
2017-10-16T19:57:59.492Z,23.25
2017-10-16T20:00:27.042Z,20.98
2017-10-16T20:02:54.631Z,21.55
2017-10-16T20:05:22.161Z,25.98
2017-10-16T20:07:49.701Z,21.67
2017-10-16T20:10:17.223Z,22.15
2017-10-16T20:12:45.535Z,26.65
2017-10-16T20:15:13.071Z,25.90
2017-10-16T20:17:40.718Z,26.00
2017-10-16T20:20:09.047Z,23.52
2017-10-16T20:22:36.668Z,24.15
2017-10-16T20:25:04.181Z,23.98
2017-10-16T20:27:31.821Z,24.17
2017-10-16T20:29:59.340Z,24.67
2017-10-16T20:32:27.618Z,24.90
2017-10-16T20:34:55.901Z,29.35
2017-10-16T20:37:24.171Z,28.33
2017-10-16T20:39:52.492Z,24.25
2017-10-16T20:42:20.104Z,26.25
2017-10-16T20:44:48.383Z,25.58
2017-10-16T20:47:16.696Z,28.48
2017-10-16T20:49:44.263Z,25.33
2017-10-16T20:52:11.918Z,24.85
2017-10-16T20:54:39.456Z,24.40
2017-10-16T20:57:07.766Z,24.63
2017-10-16T20:59:35.393Z,28.40
2017-10-16T21:02:03.680Z,26.48
2017-10-16T21:04:31.268Z,37.97
2017-10-16T21:06:59.135Z,26.50
2017-10-16T21:09:26.729Z,25.12
2017-10-16T21:11:54.268Z,26.80
2017-10-16T21:14:21.810Z,23.70
2017-10-16T21:16:49.422Z,24.27
2017-10-16T21:19:16.978Z,24.37
2017-10-16T21:21:44.504Z,23.33
2017-10-16T21:24:12.164Z,24.70
2017-10-16T21:26:39.762Z,24.27
2017-10-16T21:29:07.276Z,23.20
2017-10-16T21:31:34.815Z,23.87
2017-10-16T21:34:02.337Z,24.60
2017-10-16T21:36:29.859Z,25.42
2017-10-16T21:38:57.386Z,25.70
2017-10-16T21:41:25.675Z,25.73
2017-10-16T21:43:53.248Z,26.95
2017-10-16T21:46:20.843Z,26.73
2017-10-16T21:48:48.386Z,26.92
2017-10-16T21:51:15.919Z,26.08
2017-10-16T21:53:43.430Z,24.15
2017-10-16T21:56:10.962Z,26.60
2017-10-16T21:58:38.491Z,25.27
2017-10-16T22:01:06.000Z,24.65
2017-10-16T22:03:33.527Z,26.37
2017-10-16T22:06:01.074Z,26.55
2017-10-16T22:08:29.378Z,25.58
2017-10-16T22:10:56.896Z,26.70
2017-10-16T22:13:24.413Z,30.10
2017-10-16T22:15:51.913Z,39.03
2017-10-16T22:18:19.474Z,27.30
2017-10-16T22:20:47.004Z,26.27
2017-10-16T22:23:14.544Z,27.77
2017-10-16T22:25:42.043Z,26.75
2017-10-16T22:28:09.607Z,26.58
2017-10-16T22:30:38.023Z,28.87
2017-10-16T22:33:05.564Z,26.90
2017-10-16T22:35:33.068Z,26.60
2017-10-16T22:38:00.626Z,29.80
2017-10-16T22:40:28.206Z,29.23
2017-10-16T22:42:55.875Z,26.80
2017-10-16T22:45:23.393Z,26.25
2017-10-16T22:47:50.915Z,27.05
2017-10-16T22:50:19.227Z,28.38
2017-10-16T22:52:46.765Z,26.98
2017-10-16T22:55:14.327Z,27.65
2017-10-16T22:57:41.871Z,27.02
2017-10-16T23:00:09.392Z,26.05
2017-10-16T23:02:36.900Z,27.10
2017-10-16T23:05:04.438Z,27.60
2017-10-16T23:07:31.964Z,27.52
2017-10-16T23:09:59.471Z,28.55
2017-10-16T23:12:27.768Z,26.42
2017-10-16T23:14:55.327Z,27.17
2017-10-16T23:17:22.866Z,26.55
2017-10-16T23:19:51.132Z,27.37
2017-10-16T23:22:19.400Z,27.23
2017-10-16T23:24:46.934Z,26.50
2017-10-16T23:27:14.460Z,29.10
2017-10-16T23:29:42.056Z,26.50
2017-10-16T23:32:09.594Z,27.77
2017-10-16T23:34:37.119Z,27.00
2017-10-16T23:37:05.410Z,26.85
2017-10-16T23:39:32.935Z,27.35
2017-10-16T23:42:00.441Z,27.70
2017-10-16T23:44:27.959Z,28.15
2017-10-16T23:46:56.278Z,26.45
2017-10-16T23:49:23.815Z,24.00
2017-10-16T23:51:51.354Z,27.05
2017-10-16T23:54:19.731Z,24.95
2017-10-16T23:56:48.043Z,27.10
2017-10-16T23:59:15.564Z,25.00
